Map

Track Data

SID SEASON NUMBER BASIN SUBBASIN NAME ISO_TIME NATURE LAT LON WMO_WIND WMO_PRES WMO_AGENCY TRACK_TYPE DIST2LAND LANDFALL IFLAG USA_AGENCY USA_ATCF_ID USA_LAT USA_LON USA_RECORD USA_STATUS USA_WIND USA_PRES USA_SSHS USA_R34_NE USA_R34_SE USA_R34_SW USA_R34_NW USA_R50_NE USA_R50_SE USA_R50_SW USA_R50_NW USA_R64_NE USA_R64_SE USA_R64_SW USA_R64_NW USA_POCI USA_ROCI USA_RMW USA_EYE TOKYO_LAT TOKYO_LON TOKYO_GRADE TOKYO_WIND TOKYO_PRES TOKYO_R50_DIR TOKYO_R50_LONG TOKYO_R50_SHORT TOKYO_R30_DIR TOKYO_R30_LONG TOKYO_R30_SHORT TOKYO_LAND CMA_LAT CMA_LON CMA_CAT CMA_WIND CMA_PRES HKO_LAT HKO_LON HKO_CAT HKO_WIND HKO_PRES NEWDELHI_LAT NEWDELHI_LON NEWDELHI_GRADE NEWDELHI_WIND NEWDELHI_PRES NEWDELHI_CI NEWDELHI_DP NEWDELHI_POCI REUNION_LAT REUNION_LON REUNION_TYPE REUNION_WIND REUNION_PRES REUNION_TNUM REUNION_CI REUNION_RMW REUNION_R34_NE REUNION_R34_SE REUNION_R34_SW REUNION_R34_NW REUNION_R50_NE REUNION_R50_SE REUNION_R50_SW REUNION_R50_NW REUNION_R64_NE REUNION_R64_SE REUNION_R64_SW REUNION_R64_NW BOM_LAT BOM_LON BOM_TYPE BOM_WIND BOM_PRES BOM_TNUM BOM_CI BOM_RMW BOM_R34_NE BOM_R34_SE BOM_R34_SW BOM_R34_NW BOM_R50_NE BOM_R50_SE BOM_R50_SW BOM_R50_NW BOM_R64_NE BOM_R64_SE BOM_R64_SW BOM_R64_NW BOM_ROCI BOM_POCI BOM_EYE BOM_POS_METHOD BOM_PRES_METHOD NADI_LAT NADI_LON NADI_CAT NADI_WIND NADI_PRES WELLINGTON_LAT WELLINGTON_LON WELLINGTON_WIND WELLINGTON_PRES DS824_LAT DS824_LON DS824_STAGE DS824_WIND DS824_PRES TD9636_LAT TD9636_LON TD9636_STAGE TD9636_WIND TD9636_PRES TD9635_LAT TD9635_LON TD9635_WIND TD9635_PRES TD9635_ROCI NEUMANN_LAT NEUMANN_LON NEUMANN_CLASS NEUMANN_WIND NEUMANN_PRES MLC_LAT MLC_LON MLC_CLASS MLC_WIND MLC_PRES USA_GUST BOM_GUST BOM_GUST_PER REUNION_GUST REUNION_GUST_PER USA_SEAHGT USA_SEARAD_NE USA_SEARAD_SE USA_SEARAD_SW USA_SEARAD_NW STORM_SPEED STORM_DIR
1979233N14258 1979 73 EP MM FEFA 1979-08-21 00:00:00 TS 13.9000 -101.800 25 hurdat_epa main 384 380 O________OO___ hurdat_epa EP061979 13.9000 -101.800 TD 25 -1 13.9000 -101.800 TC 25 13.9000 -101.800 1 25 13 283
1979233N14258 1979 73 EP MM FEFA 1979-08-21 03:00:00 TS 14.0400 -102.439 main 394 388 P________PP___ EP061979 14.0179 -102.445 TD 30 -1 14.0179 -102.445 TC 30 14.1285 -102.417 1 28 13 285
1979233N14258 1979 73 EP MM FEFA 1979-08-21 06:00:00 TS 14.2310 -103.091 35 hurdat_epa main 407 404 O________OP___ hurdat_epa EP061979 14.2000 -103.100 TS 35 0 14.2000 -103.100 TC 35 14.3551 -103.057 1 32 14 290
1979233N14258 1979 73 EP MM FEFA 1979-08-21 09:00:00 TS 14.5036 -103.771 main 412 401 P________PP___ EP061979 14.4847 -103.777 TS 37 0 14.4847 -103.777 TC 37 14.5792 -103.744 1 36 15 293
1979233N14258 1979 73 EP MM FEFA 1979-08-21 12:00:00 TS 14.8000 -104.500 40 hurdat_epa main 404 398 O________OO___ hurdat_epa EP061979 14.8000 -104.500 TS 40 0 14.8000 -104.500 TC 40 14.8000 -104.500 2 40 16 291
1979233N14258 1979 73 EP MM FEFA 1979-08-21 15:00:00 TS 15.0609 -105.278 main 406 406 P________PP___ EP061979 15.0721 -105.263 TS 47 0 15.0721 -105.263 TC 47 15.0158 -105.338 2 45 16 287
1979233N14258 1979 73 EP MM FEFA 1979-08-21 18:00:00 TS 15.2847 -106.126 55 hurdat_epa main 435 435 O________OP___ hurdat_epa EP061979 15.3000 -106.100 TS 55 0 15.3000 -106.100 TC 55 15.2233 -106.227 2 50 18 283
1979233N14258 1979 73 EP MM FEFA 1979-08-21 21:00:00 TS 15.4619 -107.066 main 480 480 P________PP___ EP061979 15.4726 -107.050 TS 57 0 15.4726 -107.050 TC 57 15.4189 -107.128 2 55 18 280
1979233N14258 1979 73 EP MM FEFA 1979-08-22 00:00:00 TS 15.6000 -108.000 60 hurdat_epa main 526 526 O________OO___ hurdat_epa EP061979 15.6000 -108.000 TS 60 0 15.6000 -108.000 TC 60 15.6000 -108.000 2 60 17 278
1979233N14258 1979 73 EP MM FEFA 1979-08-22 03:00:00 TS 15.7055 -108.828 main 577 577 P________PP___ EP061979 15.6921 -108.838 TS 67 1 15.6921 -108.838 TC 67 15.7589 -108.787 2 67 15 278
1979233N14258 1979 73 EP MM FEFA 1979-08-22 06:00:00 TS 15.8211 -109.588 75 hurdat_epa main 630 630 O________OP___ hurdat_epa EP061979 15.8000 -109.600 HU 75 1 15.8000 -109.600 TC 75 15.9056 -109.538 2 75 15 281
1979233N14258 1979 73 EP MM FEFA 1979-08-22 09:00:00 TS 15.9917 -110.318 main 671 671 P________PP___ EP061979 15.9773 -110.330 HU 82 1 15.9773 -110.330 TC 82 16.0496 -110.271 2 82 14 286
1979233N14258 1979 73 EP MM FEFA 1979-08-22 12:00:00 TS 16.2000 -111.000 90 hurdat_epa main 718 718 O________OO___ hurdat_epa EP061979 16.2000 -111.000 HU 90 2 16.2000 -111.000 TC 90 16.2000 -111.000 4 90 13 290
1979233N14258 1979 73 EP MM FEFA 1979-08-22 15:00:00 TS 16.4430 -111.600 main 746 730 P________PP___ EP061979 16.4642 -111.570 HU 92 2 16.4642 -111.570 TC 92 16.3580 -111.718 4 90 13 291
1979233N14258 1979 73 EP MM FEFA 1979-08-22 18:00:00 TS 16.6650 -112.248 95 hurdat_epa main 730 730 O________OP___ hurdat_epa EP061979 16.7000 -112.200 HU 95 2 16.7000 -112.200 TC 95 16.5250 -112.441 4 90 15 283
1979233N14258 1979 73 EP MM FEFA 1979-08-22 21:00:00 TS 16.7750 -113.083 main 755 755 P________PP___ EP061979 16.7926 -113.056 HU 92 2 16.7926 -113.056 TC 92 16.7046 -113.194 4 90 17 278
1979233N14258 1979 73 EP MM FEFA 1979-08-23 00:00:00 TS 16.9000 -114.000 90 hurdat_epa main 790 790 O________OO___ hurdat_epa EP061979 16.9000 -114.000 HU 90 2 16.9000 -114.000 TC 90 16.9000 -114.000 4 90 18 283
1979233N14258 1979 73 EP MM FEFA 1979-08-23 03:00:00 TS 17.1823 -114.892 main 817 817 P________PP___ EP061979 17.1919 -114.885 HU 90 2 17.1919 -114.885 TC 90 17.1440 -114.924 4 92 18 288
1979233N14258 1979 73 EP MM FEFA 1979-08-23 06:00:00 TS 17.4793 -115.820 90 hurdat_epa main 854 854 O________OP___ hurdat_epa EP061979 17.5000 -115.800 HU 90 2 17.5000 -115.800 TC 90 17.3964 -115.898 4 95 19 285
1979233N14258 1979 73 EP MM FEFA 1979-08-23 09:00:00 TS 17.6808 -116.803 main 916 916 P________PP___ EP061979 17.6947 -116.785 HU 95 2 17.6947 -116.785 TC 95 17.6253 -116.874 4 97 19 280
1979233N14258 1979 73 EP MM FEFA 1979-08-23 12:00:00 TS 17.8000 -117.800 100 hurdat_epa main 971 971 O________OO___ hurdat_epa EP061979 17.8000 -117.800 HU 100 3 17.8000 -117.800 TC 100 17.8000 -117.800 4 100 19 274
1979233N14258 1979 73 EP MM FEFA 1979-08-23 15:00:00 TS 17.8279 -118.836 main 1037 1037 P________PP___ EP061979 17.8154 -118.875 HU 90 2 17.8154 -118.875 TC 90 17.8778 -118.678 4 91 18 271
1979233N14258 1979 73 EP MM FEFA 1979-08-23 18:00:00 TS 17.8204 -119.738 80 hurdat_epa main 1101 1101 O________OP___ hurdat_epa EP061979 17.8000 -119.800 HU 80 1 17.8000 -119.800 TC 80 17.9021 -119.489 4 82 15 271
1979233N14258 1979 73 EP MM FEFA 1979-08-23 21:00:00 TS 17.8535 -120.365 main 1146 1146 P________PP___ EP061979 17.8418 -120.405 HU 72 1 17.8418 -120.405 TC 72 17.9002 -120.206 4 73 10 275
1979233N14258 1979 73 EP MM FEFA 1979-08-24 00:00:00 TS 17.9000 -120.800 65 hurdat_epa main 1177 1177 O________OO___ hurdat_epa EP061979 17.9000 -120.800 HU 65 1 17.9000 -120.800 TC 65 17.9000 -120.800 4 65 8 277
1979233N14258 1979 73 EP MM FEFA 1979-08-24 03:00:00 TS 17.9472 -121.148 main 1201 1201 P________PP___ EP061979 17.9497 -121.123 HU 60 0 17.9497 -121.123 TC 60 17.9370 -121.251 4 57 6 279
1979233N14258 1979 73 EP MM FEFA 1979-08-24 06:00:00 TS 17.9966 -121.437 55 hurdat_epa main 1217 1217 O________OP___ hurdat_epa EP061979 18.0000 -121.400 TS 55 0 18.0000 -121.400 TC 55 17.9830 -121.585 4 50 6 280
1979233N14258 1979 73 EP MM FEFA 1979-08-24 09:00:00 TS 18.0475 -121.770 main 1250 1243 P________PP___ EP061979 18.0500 -121.750 TS 45 0 18.0500 -121.750 TC 45 18.0375 -121.851 4 42 6 279
1979233N14258 1979 73 EP MM FEFA 1979-08-24 12:00:00 TS 18.1000 -122.100 35 hurdat_epa main 1268 1268 O________OO___ hurdat_epa EP061979 18.1000 -122.100 TS 35 0 18.1000 -122.100 TC 35 18.1000 -122.100 2 35 6 280
1979233N14258 1979 73 EP MM FEFA 1979-08-24 15:00:00 TS 18.1478 -122.400 main 1293 1286 P________PP___ EP061979 18.1424 -122.408 TS 30 -1 18.1424 -122.408 TC 30 18.1693 -122.371 2 31 6 281
1979233N14258 1979 73 EP MM FEFA 1979-08-24 18:00:00 TS 18.2087 -122.693 25 hurdat_epa main 1312 1312 O________OP___ hurdat_epa EP061979 18.2000 -122.700 TD 25 -1 18.2000 -122.700 TC 25 18.2437 -122.667 2 27 6 285
1979233N14258 1979 73 EP MM FEFA 1979-08-24 21:00:00 TS 18.2963 -122.994 main 1328 1328 P________PP___ EP061979 18.2901 -122.997 TD 22 -1 18.2901 -122.997 TC 22 18.3212 -122.979 2 23 6 288
1979233N14258 1979 73 EP MM FEFA 1979-08-25 00:00:00 TS 18.4000 -123.300 20 hurdat_epa main 1340 O________OO___ hurdat_epa EP061979 18.4000 -123.300 TD 20 -1 18.4000 -123.300 TC 20 18.4000 -123.300 1 20 6 290

About IBTrACS Database

This database is a web-friendly format of International Best Track Archive for Climate Stewardship (IBTrACS), a global best track data archive curated by NOAA dating back to 1842.

Updated: 2021-12-03